createdAt,value
2018-11-27T00:01:27.168Z,19.60
2018-11-27T00:06:45.818Z,19.40
2018-11-27T00:12:04.449Z,20.40
2018-11-27T00:17:22.986Z,19.57
2018-11-27T00:22:41.642Z,20.23
2018-11-27T00:28:00.141Z,20.43
2018-11-27T00:33:18.633Z,20.00
2018-11-27T00:38:37.200Z,20.00
2018-11-27T00:43:55.700Z,19.73
2018-11-27T00:49:14.303Z,20.97
2018-11-27T00:54:32.818Z,19.77
2018-11-27T00:59:51.418Z,20.93
2018-11-27T01:05:13.788Z,21.10
2018-11-27T01:10:32.350Z,21.50
2018-11-27T01:15:51.150Z,20.77
2018-11-27T01:21:09.732Z,20.50
2018-11-27T01:26:28.377Z,20.30
2018-11-27T01:31:46.952Z,19.32
2018-11-27T01:37:05.895Z,20.47
2018-11-27T01:42:24.470Z,21.67
2018-11-27T01:47:43.054Z,21.47
2018-11-27T01:53:01.650Z,20.63
2018-11-27T01:58:20.177Z,20.70
2018-11-27T02:03:38.796Z,20.07
2018-11-27T02:08:57.361Z,21.03
2018-11-27T02:14:16.649Z,22.43
2018-11-27T02:19:35.354Z,20.00
2018-11-27T02:24:53.993Z,20.47
2018-11-27T02:30:14.201Z,19.57
2018-11-27T02:35:32.773Z,19.62
2018-11-27T02:40:51.261Z,22.33
2018-11-27T02:46:09.770Z,21.30
2018-11-27T02:51:28.293Z,21.27
2018-11-27T02:56:46.784Z,21.37
2018-11-27T03:02:05.360Z,21.40
2018-11-27T03:07:23.972Z,22.00
2018-11-27T03:12:42.541Z,20.80
2018-11-27T03:18:01.120Z,20.37
2018-11-27T03:23:19.616Z,20.77
2018-11-27T03:28:38.140Z,20.10
2018-11-27T03:33:56.770Z,21.27
2018-11-27T03:39:16.247Z,23.27
2018-11-27T03:44:34.932Z,21.03
2018-11-27T03:49:53.517Z,22.17
2018-11-27T03:55:12.850Z,20.70
2018-11-27T04:00:31.780Z,21.83
2018-11-27T04:05:50.435Z,20.00
2018-11-27T04:11:09.013Z,18.60
2018-11-27T04:16:27.590Z,19.10
2018-11-27T04:21:46.107Z,19.12
2018-11-27T04:27:04.904Z,17.97
2018-11-27T04:32:23.485Z,17.13
2018-11-27T04:37:42.075Z,17.27
2018-11-27T04:43:00.629Z,18.90
2018-11-27T04:48:19.231Z,18.47
2018-11-27T04:53:37.874Z,17.87
2018-11-27T04:58:56.414Z,19.27
2018-11-27T05:04:14.928Z,19.63
2018-11-27T05:09:33.469Z,19.43
2018-11-27T05:14:52.022Z,19.63
2018-11-27T05:20:11.733Z,18.30
2018-11-27T05:25:30.293Z,17.50
2018-11-27T05:30:48.926Z,19.92
2018-11-27T05:36:07.478Z,18.80
2018-11-27T05:41:26.009Z,21.13
2018-11-27T05:46:44.498Z,19.43
2018-11-27T05:52:03.060Z,19.92
2018-11-27T05:57:21.621Z,18.90
2018-11-27T06:02:40.390Z,20.27
2018-11-27T06:07:58.967Z,20.13
2018-11-27T06:13:17.558Z,21.33
2018-11-27T06:18:36.126Z,18.87
2018-11-27T06:23:54.700Z,19.83
2018-11-27T06:29:13.245Z,17.50
2018-11-27T06:34:31.998Z,18.60
2018-11-27T06:39:50.637Z,19.33
2018-11-27T06:45:11.541Z,20.15
2018-11-27T06:50:30.081Z,19.77
2018-11-27T06:55:48.691Z,19.53
2018-11-27T07:01:07.353Z,19.73
2018-11-27T07:06:25.877Z,20.35
2018-11-27T07:11:44.384Z,19.83
2018-11-27T07:17:02.951Z,19.97
2018-11-27T07:22:21.615Z,20.73
2018-11-27T07:27:40.470Z,20.80
2018-11-27T07:32:59.051Z,21.00
2018-11-27T07:38:17.590Z,18.73
2018-11-27T07:43:36.122Z,19.52
2018-11-27T07:48:54.653Z,20.03
2018-11-27T07:54:13.203Z,19.87
2018-11-27T07:59:32.073Z,19.73
2018-11-27T08:04:50.663Z,19.33
2018-11-27T08:10:13.613Z,18.75
2018-11-27T08:20:56.242Z,21.77
2018-11-27T08:26:14.776Z,21.10
2018-11-27T08:31:33.918Z,20.53
2018-11-27T08:36:52.453Z,20.23
2018-11-27T08:42:11.029Z,20.00
2018-11-27T08:47:29.567Z,19.90
2018-11-27T08:52:53.321Z,20.70
2018-11-27T08:58:18.114Z,19.13
2018-11-27T09:03:36.693Z,19.27
2018-11-27T09:08:55.257Z,19.97
2018-11-27T09:14:14.130Z,20.87
2018-11-27T09:19:32.399Z,19.80
2018-11-27T09:24:50.906Z,20.53
2018-11-27T09:30:14.788Z,20.60
2018-11-27T09:35:33.397Z,18.00
2018-11-27T09:40:51.974Z,18.17
2018-11-27T09:46:10.496Z,18.53
2018-11-27T09:51:29.033Z,18.50
2018-11-27T09:56:47.744Z,18.20
2018-11-27T10:02:06.343Z,17.73
2018-11-27T10:07:24.911Z,17.63
2018-11-27T10:12:43.842Z,16.77
2018-11-27T10:18:02.917Z,16.87
2018-11-27T10:23:21.553Z,16.97
2018-11-27T10:28:40.103Z,16.90
2018-11-27T10:33:58.617Z,15.23
2018-11-27T10:39:17.187Z,14.87
2018-11-27T10:44:36.304Z,14.33
2018-11-27T10:49:54.938Z,14.90
2018-11-27T10:55:15.217Z,14.73
2018-11-27T11:00:39.273Z,14.80
2018-11-27T11:05:57.944Z,15.90
2018-11-27T11:11:16.429Z,14.07
2018-11-27T11:16:34.921Z,15.53
2018-11-27T11:21:53.425Z,15.00
2018-11-27T11:27:11.936Z,15.08
2018-11-27T11:32:30.546Z,12.67
2018-11-27T11:37:49.553Z,14.73
2018-11-27T11:43:08.289Z,13.93
2018-11-27T11:48:26.903Z,14.00
2018-11-27T11:53:45.553Z,14.60
2018-11-27T11:59:04.129Z,13.70
2018-11-27T12:04:22.683Z,12.90
2018-11-27T12:09:41.196Z,12.43
2018-11-27T12:14:59.813Z,11.37
2018-11-27T12:20:19.691Z,10.10
2018-11-27T12:25:38.777Z,10.80
2018-11-27T12:30:57.331Z,10.37
2018-11-27T12:36:15.823Z,9.75
2018-11-27T12:41:34.400Z,10.50
2018-11-27T12:46:52.922Z,9.70
2018-11-27T12:52:11.459Z,10.93
2018-11-27T12:57:30.023Z,10.07
2018-11-27T13:02:49.047Z,10.77
2018-11-27T13:08:23.702Z,10.80
2018-11-27T13:13:42.481Z,11.30
2018-11-27T13:19:01.014Z,11.13
2018-11-27T13:24:19.611Z,10.73
2018-11-27T13:29:38.285Z,11.37
2018-11-27T13:34:56.836Z,10.80
2018-11-27T13:40:15.480Z,11.70
2018-11-27T13:45:34.049Z,12.17
2018-11-27T13:50:52.627Z,11.13
2018-11-27T13:56:11.219Z,11.10
2018-11-27T14:01:29.733Z,13.17
2018-11-27T14:06:48.249Z,11.77
2018-11-27T14:12:07.029Z,11.97
2018-11-27T14:17:25.679Z,11.30
2018-11-27T14:22:46.036Z,11.37
2018-11-27T14:28:04.605Z,11.07
2018-11-27T14:33:23.078Z,11.10
2018-11-27T14:38:42.664Z,11.10
2018-11-27T14:44:01.401Z,11.47
2018-11-27T14:49:20.155Z,11.17
2018-11-27T14:54:40.473Z,10.60
2018-11-27T14:59:59.146Z,10.70
2018-11-27T15:05:26.112Z,10.45
2018-11-27T15:10:44.777Z,10.73
2018-11-27T15:16:03.487Z,11.00
2018-11-27T15:21:22.400Z,11.07
2018-11-27T15:26:51.666Z,10.73
2018-11-27T15:32:10.330Z,10.40
2018-11-27T15:37:28.906Z,11.53
2018-11-27T15:42:47.469Z,11.53
2018-11-27T15:48:08.708Z,10.43
2018-11-27T15:53:27.394Z,11.80
2018-11-27T16:04:33.093Z,10.07
2018-11-27T16:09:51.794Z,9.57
2018-11-27T16:15:13.704Z,9.68
2018-11-27T16:20:32.659Z,9.93
2018-11-27T16:25:51.834Z,10.60
2018-11-27T16:31:10.607Z,9.03
2018-11-27T16:36:29.252Z,9.50
2018-11-27T16:41:48.002Z,9.50
2018-11-27T16:47:07.387Z,9.63
2018-11-27T16:52:26.389Z,9.03
2018-11-27T16:57:45.378Z,8.97
2018-11-27T17:03:05.392Z,9.67
2018-11-27T17:08:24.871Z,8.67
2018-11-27T17:13:43.729Z,9.47
2018-11-27T17:19:02.364Z,8.53
2018-11-27T17:24:21.131Z,8.00
2018-11-27T17:29:40.097Z,7.50
2018-11-27T17:34:58.936Z,8.10
2018-11-27T17:40:17.726Z,9.33
2018-11-27T17:45:36.721Z,8.53
2018-11-27T17:50:55.564Z,9.03
2018-11-27T17:56:14.445Z,8.80
2018-11-27T18:01:33.127Z,7.87
2018-11-27T18:06:51.824Z,8.40
2018-11-27T18:12:10.434Z,9.13
2018-11-27T18:17:29.580Z,9.55
2018-11-27T18:22:48.381Z,9.15
2018-11-27T18:28:06.993Z,9.33
2018-11-27T18:33:38.009Z,7.93
2018-11-27T18:38:56.558Z,9.33
2018-11-27T18:44:15.249Z,8.43
2018-11-27T18:49:33.747Z,8.03
2018-11-27T18:54:52.404Z,9.17
2018-11-27T19:00:29.079Z,9.40
2018-11-27T19:05:47.850Z,8.93
2018-11-27T19:11:09.077Z,9.53
2018-11-27T19:16:27.797Z,8.90
2018-11-27T19:21:46.626Z,9.83
2018-11-27T19:27:05.402Z,9.00
2018-11-27T19:32:24.245Z,11.95
2018-11-27T19:37:42.887Z,12.30
2018-11-27T19:43:01.404Z,11.97
2018-11-27T19:48:20.000Z,11.53
2018-11-27T19:53:39.223Z,10.87
2018-11-27T19:58:57.128Z,10.53
2018-11-27T20:04:15.689Z,10.60
2018-11-27T20:09:34.275Z,10.80
2018-11-27T20:14:52.882Z,10.70
2018-11-27T20:20:13.030Z,12.13
2018-11-27T20:25:31.694Z,11.27
2018-11-27T20:30:50.872Z,12.43
2018-11-27T20:36:10.055Z,10.37
2018-11-27T20:41:28.658Z,11.57
2018-11-27T20:46:48.020Z,11.90
2018-11-27T20:52:06.639Z,12.70
2018-11-27T20:57:25.274Z,12.40
2018-11-27T21:02:44.561Z,12.27
2018-11-27T21:08:02.597Z,12.57
2018-11-27T21:13:21.850Z,12.27
2018-11-27T21:18:40.359Z,13.10
2018-11-27T21:23:58.932Z,11.93
2018-11-27T21:29:17.528Z,11.93
2018-11-27T21:34:36.658Z,10.63
2018-11-27T21:39:55.626Z,12.50
2018-11-27T21:45:15.692Z,11.50
2018-11-27T21:50:39.337Z,12.20
2018-11-27T21:55:59.745Z,13.03
2018-11-27T22:01:18.232Z,11.43
2018-11-27T22:06:37.049Z,11.57
2018-11-27T22:11:55.601Z,11.93
2018-11-27T22:17:14.182Z,11.90
2018-11-27T22:22:32.714Z,12.33
2018-11-27T22:27:57.806Z,12.50
2018-11-27T22:33:16.429Z,11.80
2018-11-27T22:38:35.053Z,12.47
2018-11-27T22:43:53.660Z,11.47
2018-11-27T22:49:12.234Z,11.33
2018-11-27T22:54:31.455Z,11.87
2018-11-27T22:59:50.010Z,12.97
2018-11-27T23:05:09.230Z,12.80
2018-11-27T23:10:29.261Z,10.70
2018-11-27T23:15:48.447Z,12.13
2018-11-27T23:21:07.011Z,12.23
2018-11-27T23:26:25.532Z,11.57
2018-11-27T23:31:44.923Z,12.97
2018-11-27T23:37:04.079Z,12.40
2018-11-27T23:42:22.606Z,12.13
2018-11-27T23:47:41.103Z,10.67
2018-11-27T23:52:59.636Z,9.97
2018-11-27T23:58:18.337Z,12.57
